Time;durP1;ratioP1;P1;durP2;ratioP2;P2;SDS_P1;SDS_P2;PMS_P1;PMS_P2;Temp;Humidity;BMP_temperature;BMP_pressure;BME280_temperature;BME280_humidity;BME280_pressure;Samples;Min_cycle;Max_cycle;Signal;HPM_P1;HPM_P2
2022/04/13 00:00:58;;;;;;;25.95;17.58;;;;;;;2.49;76.89;97975.56;10288448;28;20030;-59
2022/04/13 00:05:57;;;;;;;25.92;17.10;;;;;;;1.71;76.71;97866.19;10290993;28;20068;-59
2022/04/13 00:10:57;;;;;;;29.30;18.42;;;;;;;2.33;76.30;97970.75;10296010;28;20532;-60
2022/04/13 00:15:56;;;;;;;26.40;16.02;;;;;;;1.99;76.42;97941.38;10294950;28;20070;-60
2022/04/13 00:20:55;;;;;;;28.67;16.83;;;;;;;1.95;76.47;97931.88;10295469;28;20025;-60
2022/04/13 00:25:53;;;;;;;23.35;15.73;;;;;;;2.08;76.48;97962.19;10295410;28;20471;-60
2022/04/13 00:30:52;;;;;;;25.30;15.55;;;;;;;1.55;76.75;97881.81;10294582;28;20450;-60
2022/04/13 00:35:54;;;;;;;35.90;27.40;;;;;;;1.92;76.97;97962.44;10294612;28;20389;-60
2022/04/13 00:40:54;;;;;;;18.40;12.07;;;;;;;1.83;77.46;97967.22;10294646;28;20068;-60
2022/04/13 00:45:53;;;;;;;21.52;12.55;;;;;;;1.42;77.36;97907.75;10294632;28;20068;-60
2022/04/13 00:50:52;;;;;;;20.30;14.13;;;;;;;1.72;77.43;97972.84;10293535;28;20042;-60
2022/04/13 00:55:55;;;;;;;36.92;26.85;;;;;;;1.67;77.63;97973.47;10294087;28;20124;-60
2022/04/13 01:00:55;;;;;;;29.33;19.58;;;;;;;1.65;77.74;97976.00;10293776;28;20516;-60
2022/04/13 01:05:54;;;;;;;21.52;14.40;;;;;;;1.45;77.92;97947.09;10293587;28;20061;-60
2022/04/13 01:10:54;;;;;;;28.58;22.08;;;;;;;1.58;78.25;97960.34;10293447;28;20061;-60
2022/04/13 01:15:53;;;;;;;20.33;14.07;;;;;;;1.11;78.47;97901.50;10292881;28;20068;-60
2022/04/13 01:20:53;;;;;;;20.30;12.70;;;;;;;1.58;78.37;97960.34;10292541;28;20061;-60
2022/04/13 01:25:55;;;;;;;26.27;14.20;;;;;;;1.55;78.48;97966.19;10292802;28;20062;-60
2022/04/13 01:30:54;;;;;;;29.48;16.58;;;;;;;0.54;78.59;97798.78;10292430;28;20061;-60
2022/04/13 01:35:53;;;;;;;26.27;15.73;;;;;;;1.46;78.55;97961.63;10291951;28;20022;-60
2022/04/13 01:40:52;;;;;;;30.75;18.55;;;;;;;0.61;79.80;97826.31;10292465;28;20069;-60
2022/04/13 01:45:53;;;;;;;50.88;23.08;;;;;;;1.26;79.50;97945.53;10291776;28;20154;-60
2022/04/13 01:50:52;;;;;;;33.58;18.40;;;;;;;1.13;79.51;97939.88;10291313;28;20084;-60
2022/04/13 01:55:51;;;;;;;34.85;23.00;;;;;;;0.87;80.21;97921.81;10291882;28;20058;-60
2022/04/13 02:00:56;;;;;;;;;;;;;;;1.01;80.50;97965.81;10292409;28;20069;-60
2022/04/13 02:05:55;;;;;;;24.83;14.55;;;;;;;0.94;80.00;97954.47;10291733;28;20028;-60
2022/04/13 02:10:54;;;;;;;27.38;14.88;;;;;;;0.58;79.67;97903.66;10291160;28;20458;-60
2022/04/13 02:15:53;;;;;;;28.15;17.00;;;;;;;0.94;79.90;97959.59;10289180;28;20515;-60
2022/04/13 02:20:52;;;;;;;26.75;17.35;;;;;;;0.54;79.85;97891.56;10290588;28;20084;-60
2022/04/13 02:25:51;;;;;;;26.92;17.70;;;;;;;0.94;80.45;97957.03;10290431;28;20038;-60
2022/04/13 02:30:50;;;;;;;25.27;17.27;;;;;;;0.68;79.62;97899.78;10290159;28;20034;-60
2022/04/13 02:35:49;;;;;;;24.58;16.80;;;;;;;0.62;80.23;97899.56;10290406;28;20428;-60
2022/04/13 02:40:48;;;;;;;30.67;20.90;;;;;;;0.89;80.48;97941.50;10290227;28;20069;-60
2022/04/13 02:45:47;;;;;;;31.70;20.50;;;;;;;0.04;81.34;97822.34;10289866;28;20518;-59
2022/04/13 02:50:48;;;;;;;28.23;17.05;;;;;;;0.32;81.53;97891.53;10289752;28;20536;-60
2022/04/13 02:55:48;;;;;;;28.48;16.25;;;;;;;0.38;81.63;97938.59;10289548;28;20116;-60
2022/04/13 03:00:47;;;;;;;27.17;16.73;;;;;;;0.24;81.46;97935.47;10289420;28;20065;-60
2022/04/13 03:05:46;;;;;;;29.45;18.38;;;;;;;-0.34;81.54;97858.13;10289400;28;20053;-59
2022/04/13 03:10:45;;;;;;;28.88;17.00;;;;;;;0.23;82.47;97992.41;10290064;28;20034;-59
2022/04/13 03:15:44;;;;;;;30.33;18.48;;;;;;;-0.32;83.02;97895.66;10288767;28;20022;-59
2022/04/13 03:20:43;;;;;;;27.27;16.33;;;;;;;-0.35;82.79;97909.91;10290042;28;20044;-60
2022/04/13 03:25:42;;;;;;;25.25;17.63;;;;;;;-0.21;82.79;97939.44;10289000;28;20061;-60
2022/04/13 03:30:41;;;;;;;23.70;16.23;;;;;;;0.00;82.28;97978.66;10289224;28;20469;-60
2022/04/13 03:35:40;;;;;;;23.50;14.48;;;;;;;-0.02;82.15;97990.50;10288798;28;20061;-60
2022/04/13 03:40:38;;;;;;;22.63;14.70;;;;;;;0.14;81.87;98014.97;10291233;28;20034;-60
2022/04/13 03:45:37;;;;;;;31.92;16.67;;;;;;;-0.14;82.51;97984.81;10296867;28;20028;-60
2022/04/13 03:50:36;;;;;;;33.70;19.45;;;;;;;0.17;82.49;98032.09;10295874;28;20424;-60
2022/04/13 03:55:35;;;;;;;38.50;23.73;;;;;;;-0.03;83.21;98006.59;10296086;28;20037;-61
2022/04/13 04:00:34;;;;;;;42.50;26.42;;;;;;;-0.18;83.16;97993.16;10296231;28;20197;-61
2022/04/13 04:05:33;;;;;;;44.47;26.73;;;;;;;-0.78;83.35;97885.94;10296386;28;20040;-61
2022/04/13 04:10:32;;;;;;;37.15;21.98;;;;;;;0.23;83.36;98046.00;10293590;28;20038;-61
2022/04/13 04:15:31;;;;;;;;;;;;;;;0.26;84.31;98064.03;10303971;28;20085;-61
2022/04/13 04:20:30;;;;;;;78.90;42.30;;;;;;;-0.59;84.51;97923.31;10335436;28;20318;-61
2022/04/13 04:25:29;;;;;;;96.30;54.13;;;;;;;-0.30;84.24;97973.06;10335617;28;20076;-62
2022/04/13 04:30:30;;;;;;;85.38;48.72;;;;;;;-0.23;84.33;97956.34;10335433;28;20071;-61
2022/04/13 04:35:29;;;;;;;69.05;40.67;;;;;;;0.54;84.42;98084.75;10335135;28;20084;-61
2022/04/13 04:40:29;;;;;;;40.33;27.48;;;;;;;0.76;84.09;98097.66;10330791;28;20403;-61
2022/04/13 04:45:27;;;;;;;;;;;;;;;0.93;83.92;98100.06;10332948;28;20486;-62
2022/04/13 04:50:26;;;;;;;46.58;26.15;;;;;;;1.06;83.89;98098.09;10331688;28;20319;-62
2022/04/13 04:55:25;;;;;;;51.67;28.42;;;;;;;1.00;83.66;98076.53;10333761;28;20029;-61
2022/04/13 05:00:24;;;;;;;44.08;21.40;;;;;;;1.15;83.42;98101.81;10332334;28;20072;-62
2022/04/13 05:05:23;;;;;;;42.40;20.80;;;;;;;1.25;82.75;98091.19;10307661;28;20033;-62
2022/04/13 05:10:22;;;;;;;44.95;21.63;;;;;;;1.47;82.45;98126.16;10311223;28;20187;-62
2022/04/13 05:15:21;;;;;;;39.50;20.38;;;;;;;1.40;82.19;98090.94;10332959;28;20065;-61
2022/04/13 05:20:21;;;;;;;31.42;19.38;;;;;;;1.63;81.66;98127.66;10305094;28;20049;-61
2022/04/13 05:25:20;;;;;;;;;;;;;;;1.82;81.67;98119.91;10310917;28;20045;-61
2022/04/13 05:30:18;;;;;;;31.42;19.10;;;;;;;2.05;81.40;98119.91;10329516;28;19982;-61
2022/04/13 05:35:18;;;;;;;25.77;15.90;;;;;;;2.30;81.28;98125.16;10325884;28;20064;-61
2022/04/13 05:40:18;;;;;;;27.75;15.93;;;;;;;2.46;80.06;98107.78;10327285;28;20068;-61
2022/04/13 05:45:17;;;;;;;26.63;16.92;;;;;;;2.72;79.10;98121.53;10326651;28;20064;-61
2022/04/13 05:50:16;;;;;;;33.47;17.60;;;;;;;2.62;78.07;98078.47;10330203;28;20076;-61
2022/04/13 05:55:15;;;;;;;30.42;16.33;;;;;;;2.83;77.72;98074.09;10329486;28;20065;-61
2022/04/13 06:00:14;;;;;;;36.00;21.17;;;;;;;3.34;76.54;98125.41;10326559;28;20065;-61
2022/04/13 06:05:15;;;;;;;22.27;15.80;;;;;;;2.90;76.24;98024.78;10328356;28;20141;-61
2022/04/13 06:10:15;;;;;;;23.52;15.85;;;;;;;3.62;75.44;98104.06;10329154;28;20463;-60
2022/04/13 06:15:14;;;;;;;27.65;17.98;;;;;;;3.96;75.16;98114.53;10330250;28;20073;-60
2022/04/13 06:20:14;;;;;;;31.25;17.38;;;;;;;4.24;74.77;98132.53;10329401;28;20073;-61
2022/04/13 06:25:13;;;;;;;27.80;18.23;;;;;;;4.19;73.63;98076.69;10329942;28;20065;-60
2022/04/13 06:30:13;;;;;;;27.90;18.95;;;;;;;4.47;73.16;98084.34;10330094;28;20061;-60
2022/04/13 06:35:14;;;;;;;27.02;17.70;;;;;;;4.66;72.33;98054.91;10327909;28;20112;-60
2022/04/13 06:40:14;;;;;;;28.55;18.25;;;;;;;5.24;71.41;98091.59;10330231;28;20075;-61
2022/04/13 06:45:14;;;;;;;30.33;18.27;;;;;;;5.44;70.70;98080.91;10330173;28;20057;-60
2022/04/13 06:50:14;;;;;;;29.10;17.42;;;;;;;5.68;70.06;98067.78;10329013;28;20525;-61
2022/04/13 06:55:13;;;;;;;24.50;16.45;;;;;;;6.21;67.73;98101.63;10328082;28;20081;-60
2022/04/13 07:00:12;;;;;;;26.13;16.42;;;;;;;6.46;66.77;98108.16;10329789;28;20072;-60
2022/04/13 07:05:11;;;;;;;31.17;14.90;;;;;;;6.63;66.89;98115.34;10329838;28;20065;-60
2022/04/13 07:10:10;;;;;;;19.83;13.55;;;;;;;6.77;67.74;98089.03;10330016;28;20033;-60
2022/04/13 07:15:09;;;;;;;20.55;14.45;;;;;;;7.15;67.14;98114.66;10332765;28;20068;-62
2022/04/13 07:20:09;;;;;;;18.08;11.63;;;;;;;7.34;65.11;98110.69;10338044;28;20068;-59
2022/04/13 07:25:08;;;;;;;15.20;10.48;;;;;;;7.39;64.96;98074.63;10337618;28;20064;-60
2022/04/13 07:30:08;;;;;;;11.90;8.32;;;;;;;7.80;61.25;98096.00;10337679;28;20064;-60
2022/04/13 07:35:07;;;;;;;12.13;7.80;;;;;;;8.25;60.75;98109.56;10337266;28;20065;-60
2022/04/13 07:40:11;;;;;;;;;;;;;;;8.43;54.70;98107.22;10338567;28;20076;-60
2022/04/13 07:45:10;;;;;;;7.32;4.88;;;;;;;8.74;55.44;98089.50;10337519;28;20461;-60
2022/04/13 07:50:13;;;;;;;9.90;5.65;;;;;;;9.12;52.83;98113.22;10336685;28;20511;-60
2022/04/13 07:55:12;;;;;;;7.45;5.25;;;;;;;9.41;50.37;98098.84;10336914;28;20068;-60
2022/04/13 08:00:11;;;;;;;9.25;4.82;;;;;;;9.66;46.07;98100.81;10337219;28;20034;-60
2022/04/13 08:05:12;;;;;;;8.95;4.03;;;;;;;9.87;45.53;98096.66;10336241;28;20076;-60
2022/04/13 08:10:12;;;;;;;10.18;4.88;;;;;;;10.17;45.88;98094.25;10337010;28;20061;-60
2022/04/13 08:15:11;;;;;;;8.50;4.70;;;;;;;10.28;46.15;98078.72;10335712;28;20065;-60
2022/04/13 08:20:13;;;;;;;9.15;5.30;;;;;;;10.04;45.85;98012.06;10335706;28;20132;-60
2022/04/13 08:25:13;;;;;;;7.35;3.92;;;;;;;10.54;42.91;98050.34;10335200;28;20061;-60
2022/04/13 08:30:13;;;;;;;4.75;3.65;;;;;;;10.77;40.96;98094.53;10335782;28;20071;-60
2022/04/13 08:35:12;;;;;;;9.25;4.75;;;;;;;10.72;40.51;98044.31;10336152;28;20504;-60
2022/04/13 08:40:12;;;;;;;6.97;3.50;;;;;;;10.95;40.50;98036.63;10334051;28;20077;-60
2022/04/13 08:45:30;;;;;;;6.80;3.60;;;;;;;11.42;41.91;98082.59;10335373;28;20068;-60
2022/04/13 08:50:31;;;;;;;6.68;3.78;;;;;;;11.01;41.79;97995.09;10333177;28;20076;-60
2022/04/13 08:55:31;;;;;;;7.88;3.60;;;;;;;11.76;39.74;98085.22;10334872;28;20069;-60
2022/04/13 09:00:34;;;;;;;11.77;4.25;;;;;;;11.67;40.79;98060.06;10334880;28;20061;-60
2022/04/13 09:05:34;;;;;;;6.50;4.05;;;;;;;11.89;39.33;98071.31;10334682;28;20075;-60
2022/04/13 09:10:33;;;;;;;5.57;3.10;;;;;;;12.04;38.05;98069.56;10334809;28;20519;-60
2022/04/13 09:15:33;;;;;;;7.47;3.60;;;;;;;12.03;36.88;98040.09;10333870;28;20604;-60
2022/04/13 09:20:32;;;;;;;6.38;3.45;;;;;;;12.18;36.27;98047.00;10333931;28;20171;-60
2022/04/13 09:25:32;;;;;;;6.93;3.75;;;;;;;11.91;36.86;97953.44;10333917;28;20096;-60
2022/04/13 09:30:36;;;;;;;9.68;4.68;;;;;;;12.48;35.50;98029.56;10333330;28;20478;-60
2022/04/13 09:35:35;;;;;;;8.48;3.60;;;;;;;12.57;35.20;98032.13;10328587;28;20167;-60
2022/04/13 09:40:34;;;;;;;;;;;;;;;12.61;34.59;98033.84;10323193;28;20060;-60
2022/04/13 09:45:40;;;;;;;7.00;4.50;;;;;;;12.83;34.98;98034.59;10332948;28;20452;-60
2022/04/13 09:50:41;;;;;;;9.90;3.97;;;;;;;12.78;33.93;98020.75;10332980;28;20458;-60
2022/04/13 09:55:53;;;;;;;6.47;4.15;;;;;;;12.99;34.73;98001.50;10332190;28;20455;-60
2022/04/13 10:00:54;;;;;;;7.88;3.40;;;;;;;12.21;34.37;97879.63;10332295;28;20071;-60
2022/04/13 10:05:56;;;;;;;7.00;3.30;;;;;;;13.00;35.13;98012.78;10331904;28;20061;-60
2022/04/13 10:10:57;;;;;;;8.40;4.10;;;;;;;13.06;33.29;98024.03;10332097;28;20675;-60
2022/04/13 10:15:58;;;;;;;7.22;3.88;;;;;;;13.23;32.87;98010.88;10331842;28;20092;-60
2022/04/13 10:20:57;;;;;;;6.28;3.15;;;;;;;13.28;32.44;98010.84;10331902;28;20593;-60
2022/04/13 10:26:09;;;;;;;6.78;3.90;;;;;;;13.46;32.19;98005.50;10331818;28;20064;-60
2022/04/13 10:31:08;;;;;;;6.53;3.90;;;;;;;13.46;33.65;98000.28;10331232;28;20069;-60
2022/04/13 10:36:07;;;;;;;6.65;3.75;;;;;;;13.55;33.07;97976.75;10331626;28;20132;-60
2022/04/13 10:41:07;;;;;;;;;;;;;;;13.54;32.76;97990.69;10331699;28;20076;-60
2022/04/13 10:46:07;;;;;;;6.47;4.00;;;;;;;13.83;32.64;97986.06;10330961;28;20275;-60
2022/04/13 10:51:11;;;;;;;7.93;3.47;;;;;;;13.96;31.03;97993.75;10328896;28;20459;-60
2022/04/13 10:56:11;;;;;;;6.38;4.32;;;;;;;14.03;31.35;97944.97;10330841;28;20072;-60
2022/04/13 11:01:15;;;;;;;9.35;3.95;;;;;;;14.61;30.76;97970.31;10330987;28;20069;-60
2022/04/13 11:06:14;;;;;;;6.25;3.22;;;;;;;14.65;29.92;97963.31;10330875;28;20061;-60
2022/04/13 11:11:22;;;;;;;5.78;4.10;;;;;;;14.54;29.76;97965.22;10330506;28;20111;-60
2022/04/13 11:16:23;;;;;;;7.88;3.60;;;;;;;14.55;29.66;97954.75;10330672;28;20600;-61
2022/04/13 11:21:21;;;;;;;8.15;3.42;;;;;;;14.61;29.92;97938.13;10329961;28;20080;-61
2022/04/13 11:26:27;;;;;;;6.68;3.53;;;;;;;14.64;29.62;97956.38;10330546;28;20025;-61
2022/04/13 11:31:26;;;;;;;6.93;3.65;;;;;;;14.46;30.83;97941.81;10329944;28;20068;-61
2022/04/13 11:36:28;;;;;;;9.18;3.92;;;;;;;13.98;29.07;97817.19;10329994;28;20033;-61
2022/04/13 11:41:27;;;;;;;6.57;3.30;;;;;;;14.86;30.69;97932.59;10329900;28;20080;-60
2022/04/13 11:46:38;;;;;;;5.10;3.33;;;;;;;15.02;29.83;97934.06;10330021;28;20021;-61
2022/04/13 11:51:38;;;;;;;7.78;3.95;;;;;;;14.57;30.47;97861.59;10329502;28;20483;-61
2022/04/13 11:56:39;;;;;;;7.03;4.00;;;;;;;14.67;29.47;97887.56;10329392;28;20068;-61
2022/04/13 12:01:52;;;;;;;5.35;3.63;;;;;;;15.19;29.36;97932.03;10332195;28;20072;-61
2022/04/13 12:06:51;;;;;;;6.80;3.60;;;;;;;15.03;30.74;97852.16;10337542;28;20064;-61
2022/04/13 12:11:52;;;;;;;8.23;5.22;;;;;;;15.45;29.42;97926.34;10336954;28;20064;-61
2022/04/13 12:16:51;;;;;;;77.28;40.95;;;;;;;15.48;28.56;97898.41;10336294;28;20069;-61
2022/04/13 12:21:50;;;;;;;5.93;3.50;;;;;;;15.28;29.18;97843.88;10336319;28;20067;-61
2022/04/13 12:26:49;;;;;;;;;;;;;;;15.85;29.36;97903.84;10337004;28;20532;-61
2022/04/13 12:31:53;;;;;;;6.90;4.20;;;;;;;15.75;28.58;97897.91;10336169;28;20301;-61
2022/04/13 12:37:03;;;;;;;5.53;3.53;;;;;;;15.65;28.87;97880.66;10336151;28;20069;-61
2022/04/13 12:42:04;;;;;;;6.22;3.65;;;;;;;15.83;29.39;97889.91;10335548;28;20072;-61
2022/04/13 12:47:07;;;;;;;6.55;3.58;;;;;;;15.82;28.80;97890.84;10335738;28;20211;-61
2022/04/13 12:52:08;;;;;;;5.97;4.05;;;;;;;15.88;29.13;97875.88;10335346;28;20092;-61
2022/04/13 12:57:07;;;;;;;6.25;3.80;;;;;;;15.84;28.48;97866.34;10334898;28;20060;-61
2022/04/13 13:02:06;;;;;;;;;;;;;;;16.00;28.28;97866.91;10335451;28;20076;-62
2022/04/13 13:07:05;;;;;;;7.35;3.50;;;;;;;15.66;28.24;97804.75;10334752;28;19971;-61
2022/04/13 13:12:09;;;;;;;5.45;3.30;;;;;;;15.75;27.83;97813.31;10334785;28;20033;-61
2022/04/13 13:17:31;;;;;;;17.27;9.40;;;;;;;15.53;28.18;97742.25;10334889;28;20068;-62
2022/04/13 13:22:38;;;;;;;5.22;4.00;;;;;;;16.20;28.22;97848.13;10334021;28;20068;-61
2022/04/13 13:27:54;;;;;;;8.55;5.13;;;;;;;16.29;28.24;97840.06;10334533;28;20456;-61
2022/04/13 13:32:56;;;;;;;6.95;4.40;;;;;;;16.09;27.63;97806.50;10334161;28;20099;-62
2022/04/13 13:38:04;;;;;;;10.60;5.05;;;;;;;16.32;28.08;97841.75;10333242;28;20061;-63
2022/04/13 13:43:05;;;;;;;6.72;4.10;;;;;;;16.50;27.13;97833.47;10333453;28;20069;-62
2022/04/13 13:48:06;;;;;;;5.45;3.80;;;;;;;16.60;27.00;97828.03;10332899;28;20068;-60
2022/04/13 13:53:07;;;;;;;7.55;4.25;;;;;;;16.81;27.46;97824.06;10332392;28;20109;-62
2022/04/13 13:58:07;;;;;;;6.07;3.58;;;;;;;16.42;27.45;97776.94;10332267;28;20075;-63
2022/04/13 14:03:08;;;;;;;7.47;3.65;;;;;;;16.13;26.15;97775.84;10331810;28;20076;-60
2022/04/13 14:08:09;;;;;;;4.95;3.72;;;;;;;16.07;26.35;97762.94;10332255;28;20071;-62
2022/04/13 14:13:10;;;;;;;8.05;4.15;;;;;;;16.42;26.17;97817.09;10332137;28;20065;-62
2022/04/13 14:18:09;;;;;;;5.85;3.60;;;;;;;16.57;25.72;97818.47;10331749;28;20061;-63
2022/04/13 14:23:08;;;;;;;;;;;;;;;16.56;26.77;97818.50;10331532;28;20069;-61
2022/04/13 14:28:07;;;;;;;9.20;5.50;;;;;;;16.41;27.59;97828.47;10363134;28;19959;-61
2022/04/13 14:33:06;;;;;;;;;;;;;;;16.33;27.55;97827.78;10331978;28;20034;-61
2022/04/13 14:38:06;;;;;;;9.25;5.78;;;;;;;16.11;26.97;97806.44;10331136;28;19913;-61
2022/04/13 14:43:07;;;;;;;233.27;117.78;;;;;;;16.27;26.61;97831.38;10329375;28;20068;-61
2022/04/13 14:48:06;;;;;;;11.23;5.00;;;;;;;16.25;27.23;97829.69;10290768;28;20081;-61
2022/04/13 14:53:06;;;;;;;;;;;;;;;16.19;26.41;97835.94;10290721;28;20100;-61
2022/04/13 14:58:05;;;;;;;8.75;5.43;;;;;;;15.80;27.80;97787.94;10290321;28;19969;-61
2022/04/13 15:03:04;;;;;;;;;;;;;;;15.95;27.46;97831.22;10290150;28;20073;-61
2022/04/13 15:08:04;;;;;;;8.73;4.38;;;;;;;15.86;27.29;97834.94;10289669;28;19916;-61
2022/04/13 15:13:03;;;;;;;7.40;3.85;;;;;;;15.88;27.74;97841.84;10289869;28;20065;-61
2022/04/13 15:18:02;;;;;;;9.50;5.55;;;;;;;15.49;28.35;97779.84;10297057;28;20524;-62
2022/04/13 15:23:01;;;;;;;;;;;;;;;15.80;28.22;97838.50;10330233;28;20045;-61
2022/04/13 15:28:00;;;;;;;8.32;5.03;;;;;;;15.48;28.98;97826.03;10329728;28;19992;-61
2022/04/13 15:32:58;;;;;;;9.20;6.28;;;;;;;15.38;28.98;97817.53;10329084;28;20041;-62
2022/04/13 15:37:57;;;;;;;;;;;;;;;15.45;29.79;97857.50;10333283;28;20040;-61
2022/04/13 15:42:56;;;;;;;8.40;5.15;;;;;;;15.40;30.42;97862.81;10333798;28;19909;-61
2022/04/13 15:47:55;;;;;;;7.95;4.32;;;;;;;15.19;30.99;97860.59;10333426;28;20032;-61
2022/04/13 15:52:54;;;;;;;9.35;4.68;;;;;;;14.73;31.79;97815.22;10336088;28;20124;-61
2022/04/13 15:57:57;;;;;;;12.85;7.53;;;;;;;14.79;32.46;97843.84;10336934;28;20171;-61
2022/04/13 16:02:57;;;;;;;7.38;5.20;;;;;;;14.83;32.76;97879.47;10336727;28;20482;-62
2022/04/13 16:07:56;;;;;;;7.20;4.47;;;;;;;14.18;32.75;97814.28;10336713;28;20456;-61
2022/04/13 16:12:56;;;;;;;9.27;5.47;;;;;;;14.32;32.99;97892.41;10336315;28;20075;-61
2022/04/13 16:17:55;;;;;;;9.93;5.53;;;;;;;14.25;33.46;97895.13;10327798;28;20056;-61
2022/04/13 16:22:54;;;;;;;11.73;5.90;;;;;;;14.11;33.92;97903.13;10335102;28;20037;-61
2022/04/13 16:27:53;;;;;;;9.70;5.47;;;;;;;13.26;34.54;97791.13;10336342;28;20111;-60
2022/04/13 16:32:52;;;;;;;8.57;5.72;;;;;;;13.58;34.85;97850.72;10330989;28;20064;-60
2022/04/13 16:37:52;;;;;;;15.48;8.32;;;;;;;13.73;34.93;97904.47;10335129;28;20030;-60
2022/04/13 16:42:51;;;;;;;12.20;7.25;;;;;;;13.60;35.17;97924.56;10335404;28;20069;-60
2022/04/13 16:47:50;;;;;;;;;;;;;;;13.57;35.36;97927.22;10332301;28;20067;-60
2022/04/13 16:52:49;;;;;;;13.13;7.60;;;;;;;13.48;35.55;97938.56;10332227;28;19916;-60
2022/04/13 16:57:48;;;;;;;23.73;13.73;;;;;;;13.23;35.54;97929.25;10333714;28;20052;-62
2022/04/13 17:02:47;;;;;;;;;;;;;;;13.14;35.99;97944.09;10329620;28;20080;-63
2022/04/13 17:07:46;;;;;;;42.30;27.33;;;;;;;12.77;36.22;97906.19;10333690;28;19909;-63
2022/04/13 17:12:45;;;;;;;45.60;30.08;;;;;;;12.88;36.39;97946.91;10334008;28;20071;-60
2022/04/13 17:17:44;;;;;;;39.05;24.27;;;;;;;12.58;37.15;97931.44;10333369;28;20112;-60
2022/04/13 17:22:43;;;;;;;26.15;16.15;;;;;;;12.54;37.70;97961.88;10334035;28;20048;-60
2022/04/13 17:27:42;;;;;;;;;;;;;;;12.34;38.51;97974.09;10334160;28;20538;-60
2022/04/13 17:32:41;;;;;;;26.40;20.88;;;;;;;11.91;38.90;97958.63;10332955;28;19915;-60
2022/04/13 17:37:40;;;;;;;24.20;17.25;;;;;;;11.85;39.41;97996.78;10333002;28;20065;-60
2022/04/13 17:42:39;;;;;;;88.40;69.63;;;;;;;11.32;40.01;97950.09;10333259;28;20072;-60
2022/04/13 17:47:38;;;;;;;795.30;487.75;;;;;;;11.40;40.11;98011.56;10331618;28;20021;-60
2022/04/13 17:52:38;;;;;;;58.88;43.97;;;;;;;11.36;39.26;98011.56;10332171;28;20045;-60
2022/04/13 17:57:37;;;;;;;55.15;37.47;;;;;;;11.31;40.37;98028.88;10331951;28;20069;-60
2022/04/13 18:02:36;;;;;;;55.33;37.55;;;;;;;10.88;41.12;97985.56;10331003;28;20065;-60
2022/04/13 18:07:35;;;;;;;;;;;;;;;10.88;41.63;98027.09;10331820;28;20072;-60
2022/04/13 18:12:34;;;;;;;25.85;19.48;;;;;;;10.38;43.09;97996.66;10331277;28;19909;-60
2022/04/13 18:17:34;;;;;;;;;;;;;;;10.47;43.46;98038.22;10331177;28;20061;-60
2022/04/13 18:22:32;;;;;;;19.52;13.73;;;;;;;9.98;44.21;98012.03;10331334;28;20406;-60
2022/04/13 18:27:32;;;;;;;18.08;10.25;;;;;;;9.95;43.70;98035.34;10331053;28;20499;-60
2022/04/13 18:32:32;;;;;;;19.40;11.00;;;;;;;9.82;43.89;98060.31;10330784;28;20076;-60
2022/04/13 18:37:31;;;;;;;15.18;9.93;;;;;;;9.57;44.45;98052.34;10328842;28;20064;-60
2022/04/13 18:42:31;;;;;;;16.17;8.93;;;;;;;9.38;45.03;98049.63;10331483;28;20470;-60
2022/04/13 18:47:30;;;;;;;13.55;9.73;;;;;;;8.89;45.73;98014.63;10330231;28;20487;-60
2022/04/13 18:52:29;;;;;;;14.90;9.77;;;;;;;8.52;46.27;97988.34;10329719;28;20527;-60
2022/04/13 18:57:28;;;;;;;13.52;9.52;;;;;;;8.96;47.11;98092.34;10330773;28;20033;-60
2022/04/13 19:02:27;;;;;;;14.25;8.57;;;;;;;8.79;47.76;98094.75;10327625;28;20061;-60
2022/04/13 19:07:26;;;;;;;15.48;7.45;;;;;;;8.65;48.10;98098.03;10327103;28;20069;-61
2022/04/13 19:12:25;;;;;;;11.43;7.07;;;;;;;8.36;48.69;98082.13;10327412;28;20069;-61
2022/04/13 19:17:24;;;;;;;14.60;8.68;;;;;;;8.37;48.39;98111.47;10328340;28;20109;-61
2022/04/13 19:22:23;;;;;;;21.50;16.08;;;;;;;7.94;49.85;98059.16;10330926;28;20029;-61
2022/04/13 19:27:22;;;;;;;;;;;;;;;8.03;50.89;98101.50;10330669;28;20061;-61
2022/04/13 19:32:21;;;;;;;12.80;6.93;;;;;;;6.90;52.27;97950.81;10329879;28;20394;-62
2022/04/13 19:37:20;;;;;;;12.48;7.10;;;;;;;7.73;52.34;98093.28;10329089;28;20022;-62
2022/04/13 19:42:22;;;;;;;25.20;17.65;;;;;;;7.43;53.42;98066.13;10328328;28;20034;-62
2022/04/13 19:47:22;;;;;;;10.00;5.60;;;;;;;7.59;54.17;98109.44;10329471;28;20061;-62
2022/04/13 19:52:23;;;;;;;8.15;5.40;;;;;;;7.16;53.61;98051.88;10328800;28;20080;-62
2022/04/13 19:57:22;;;;;;;18.75;10.65;;;;;;;7.28;54.87;98092.50;10329405;28;20064;-62
2022/04/13 20:02:21;;;;;;;20.63;13.45;;;;;;;7.01;54.18;98069.69;10329881;28;20040;-62
2022/04/13 20:07:22;;;;;;;18.40;12.13;;;;;;;7.08;54.66;98093.88;10329259;28;20058;-61
2022/04/13 20:12:21;;;;;;;35.45;22.73;;;;;;;6.75;56.22;98069.16;10327395;28;20072;-62
2022/04/13 20:17:20;;;;;;;32.92;20.02;;;;;;;6.64;56.85;98061.25;10329065;28;20043;-62
2022/04/13 20:22:19;;;;;;;37.08;23.65;;;;;;;6.83;56.11;98109.75;10328779;28;20029;-62
2022/04/13 20:27:18;;;;;;;43.13;26.83;;;;;;;6.57;57.62;98087.75;10336212;28;20057;-62
2022/04/13 20:32:17;;;;;;;53.65;33.05;;;;;;;6.55;59.04;98112.63;10335472;28;20044;-62
2022/04/13 20:37:16;;;;;;;46.53;30.02;;;;;;;6.46;58.69;98123.63;10327549;28;20030;-62
2022/04/13 20:42:15;;;;;;;34.65;21.75;;;;;;;6.05;58.27;98064.34;10333509;28;20041;-61
2022/04/13 20:47:14;;;;;;;34.33;22.55;;;;;;;6.22;57.94;98121.38;10298754;28;20038;-61
2022/04/13 20:52:13;;;;;;;37.72;22.67;;;;;;;5.81;57.87;98063.78;10312944;28;20053;-61
2022/04/13 20:57:12;;;;;;;60.33;32.03;;;;;;;6.07;59.06;98118.44;10334892;28;20037;-61
2022/04/13 21:02:10;;;;;;;54.22;34.78;;;;;;;5.37;60.31;98025.88;10334905;28;20117;-61
2022/04/13 21:07:10;;;;;;;35.33;22.35;;;;;;;5.74;59.47;98089.41;10334560;28;20036;-62
2022/04/13 21:12:09;;;;;;;39.97;22.50;;;;;;;5.41;59.87;98045.69;10334310;28;20064;-61
2022/04/13 21:17:08;;;;;;;36.60;21.95;;;;;;;5.73;59.87;98107.38;10334320;28;20486;-61
2022/04/13 21:22:07;;;;;;;37.70;22.45;;;;;;;5.60;61.29;98119.06;10333950;28;20530;-62
2022/04/13 21:27:06;;;;;;;43.30;27.02;;;;;;;5.40;61.61;98095.44;10333705;28;20040;-61
2022/04/13 21:32:05;;;;;;;46.35;23.67;;;;;;;5.51;61.67;98112.03;10334054;28;20029;-62
2022/04/13 21:37:04;;;;;;;;;;;;;;;5.42;62.60;98116.94;10333634;28;20087;-62
2022/04/13 21:42:03;;;;;;;41.38;24.05;;;;;;;5.11;63.89;98081.81;10333325;28;20278;-61
2022/04/13 21:47:02;;;;;;;42.97;23.55;;;;;;;5.06;63.61;98089.44;10333488;28;20495;-61
2022/04/13 21:52:01;;;;;;;30.05;18.52;;;;;;;5.18;64.76;98116.28;10330886;28;20081;-61
2022/04/13 21:57:01;;;;;;;97.53;62.50;;;;;;;5.08;65.25;98117.75;10332232;28;20065;-61
2022/04/13 22:01:59;;;;;;;30.15;18.33;;;;;;;4.95;66.24;98119.16;10330340;28;20191;-61
2022/04/13 22:07:00;;;;;;;26.58;16.35;;;;;;;4.93;65.62;98118.19;10331121;28;20394;-61
2022/04/13 22:11:59;;;;;;;23.77;15.30;;;;;;;4.33;65.75;98039.44;10331932;28;20060;-61
2022/04/13 22:16:59;;;;;;;26.45;16.65;;;;;;;4.51;66.10;98090.47;10332219;28;20064;-61
2022/04/13 22:21:58;;;;;;;27.45;17.15;;;;;;;3.67;65.89;97957.06;10328487;28;20955;-61
2022/04/13 22:26:56;;;;;;;35.95;20.70;;;;;;;4.22;66.06;98079.34;10327917;28;20490;-61
2022/04/13 22:31:55;;;;;;;40.22;25.23;;;;;;;4.35;66.99;98113.97;10327964;28;20028;-61
2022/04/13 22:36:55;;;;;;;34.33;21.00;;;;;;;3.80;67.57;98056.69;10330879;28;20109;-61
2022/04/13 22:41:54;;;;;;;;;;;;;;;4.18;67.69;98128.91;10330528;28;20068;-61
2022/04/13 22:46:52;;;;;;;28.20;17.75;;;;;;;3.95;68.34;98097.38;10330627;28;20016;-61
2022/04/13 22:51:53;;;;;;;25.27;15.88;;;;;;;4.04;68.35;98133.63;10330353;28;20046;-61
2022/04/13 22:56:52;;;;;;;25.90;15.52;;;;;;;3.59;68.53;98082.59;10330466;28;20065;-61
2022/04/13 23:01:51;;;;;;;26.05;14.98;;;;;;;3.65;68.95;98098.16;10331214;28;20104;-61
2022/04/13 23:06:50;;;;;;;25.42;16.08;;;;;;;3.67;69.62;98109.34;10330348;28;20104;-61
2022/04/13 23:11:49;;;;;;;38.78;21.73;;;;;;;3.77;69.18;98121.66;10330327;28;20025;-61
2022/04/13 23:16:48;;;;;;;27.05;15.48;;;;;;;3.44;69.55;98065.00;10330549;28;20033;-60